Time;durP1;ratioP1;P1;durP2;ratioP2;P2;SDS_P1;SDS_P2;PMS_P1;PMS_P2;Temp;Humidity;BMP_temperature;BMP_pressure;BME280_temperature;BME280_humidity;BME280_pressure;Samples;Min_cycle;Max_cycle;Signal;HPM_P1;HPM_P2
2022/11/19 00:01:02;;;;;;;3.60;2.00;;;8.10;99.90;;;;;;5008974;28;20458;-67
2022/11/19 00:03:31;;;;;;;3.93;2.70;;;8.00;72.80;;;;;;5009529;28;20168;-67
2022/11/19 00:06:06;;;;;;;2.63;2.33;;;8.00;99.90;;;;;;5009704;28;20439;-67
2022/11/19 00:08:32;;;;;;;4.00;2.43;;;8.00;1.00;;;;;;5010164;28;20435;-68
2022/11/19 00:14:07;;;;;;;3.47;2.03;;;8.10;1.00;;;;;;5014383;28;20522;-67
2022/11/19 00:16:33;;;;;;;3.20;2.63;;;8.10;1.00;;;;;;5013600;28;20407;-67
2022/11/19 00:18:58;;;;;;;3.83;2.80;;;8.00;99.90;;;;;;5014077;28;20458;-67
2022/11/19 00:21:24;;;;;;;4.20;2.60;;;7.90;1.00;;;;;;5012252;28;20200;-68
2022/11/19 00:23:53;;;;;;;5.43;2.37;;;7.90;1.00;;;;;;5013424;28;20169;-68
2022/11/19 00:26:19;;;;;;;3.57;3.10;;;8.00;1.00;;;;;;5013249;28;20180;-68
2022/11/19 00:28:44;;;;;;;5.30;3.17;;;8.00;99.90;;;;;;5013554;28;20427;-68
2022/11/19 00:31:12;;;;;;;2.90;2.60;;;8.00;1.00;;;;;;5012467;28;20250;-67
2022/11/19 00:33:40;;;;;;;3.17;2.50;;;8.00;1.00;;;;;;5013577;28;20172;-68
2022/11/19 00:36:10;;;;;;;4.73;2.23;;;8.00;1.00;;;;;;5013309;28;20989;-67
2022/11/19 00:38:36;;;;;;;4.77;2.60;;;8.00;1.00;;;;;;5012300;28;20685;-67
2022/11/19 00:41:03;;;;;;;4.97;2.50;;;7.90;1.00;;;;;;5012278;28;20458;-67
2022/11/19 00:43:47;;;;;;;3.17;2.27;;;7.80;99.90;;;;;;5013406;28;20454;-67
2022/11/19 00:46:20;;;;;;;2.77;2.30;;;7.80;99.90;;;;;;5013145;28;20907;-67
2022/11/19 00:48:48;;;;;;;2.83;2.50;;;7.70;99.90;;;;;;5013106;28;20469;-67
2022/11/19 00:51:15;;;;;;;3.50;2.50;;;7.80;1.00;;;;;;5011986;28;20419;-67
2022/11/19 00:53:40;;;;;;;2.90;2.30;;;7.90;1.00;;;;;;5012900;28;20403;-67
2022/11/19 00:56:09;;;;;;;2.57;2.00;;;7.90;1.00;;;;;;5012885;28;20411;-67
2022/11/19 00:58:35;;;;;;;3.50;2.40;;;7.80;1.00;;;;;;5012952;28;20184;-68
2022/11/19 01:01:01;;;;;;;3.20;2.37;;;7.80;1.00;;;;;;5011862;28;20970;-67
2022/11/19 01:03:27;;;;;;;6.47;2.67;;;7.70;99.90;;;;;;5012551;28;20176;-67
2022/11/19 01:05:53;;;;;;;2.90;2.57;;;7.70;99.90;;;;;;5012576;28;20403;-68
2022/11/19 01:08:19;;;;;;;2.60;2.40;;;7.70;1.00;;;;;;5012321;28;20188;-68
2022/11/19 01:10:45;;;;;;;3.90;2.90;;;7.60;1.00;;;;;;5011800;28;20200;-68
2022/11/19 01:15:55;;;;;;;2.80;2.60;;;7.60;99.90;;;;;;5012783;28;20591;-67
2022/11/19 01:18:21;;;;;;;5.03;3.37;;;7.60;99.90;;;;;;5012670;28;20423;-67
2022/11/19 01:20:46;;;;;;;5.67;5.07;;;7.60;1.00;;;;;;5010401;28;20199;-66
2022/11/19 01:23:12;;;;;;;3.03;2.77;;;7.60;99.90;;;;;;5012278;28;20178;-66
2022/11/19 01:25:38;;;;;;;7.20;3.00;;;7.70;99.90;;;;;;5012331;28;20188;-67
2022/11/19 01:28:04;;;;;;;3.10;2.80;;;7.60;99.90;;;;;;5012414;28;20329;-66
2022/11/19 01:30:31;;;;;;;11.23;3.27;;;7.60;1.00;;;;;;5011515;28;20411;-66
2022/11/19 01:32:57;;;;;;;5.27;3.50;;;7.60;1.00;;;;;;5012221;28;21072;-67
2022/11/19 01:35:22;;;;;;;5.93;3.73;;;7.60;1.00;;;;;;5012243;28;20411;-67
2022/11/19 01:37:48;;;;;;;6.00;2.93;;;7.50;1.00;;;;;;5011680;28;20204;-66
2022/11/19 01:40:14;;;;;;;3.30;3.00;;;7.50;99.90;;;;;;5011925;28;20212;-66
2022/11/19 01:42:48;;;;;;;13.03;3.40;;;7.50;99.90;;;;;;5011507;28;20164;-66
2022/11/19 01:45:23;;;;;;;3.73;3.20;;;7.50;40.30;;;;;;5012180;28;20214;-66
2022/11/19 01:47:52;;;;;;;4.10;2.90;;;7.40;99.90;;;;;;5011619;28;20423;-66
2022/11/19 01:50:17;;;;;;;5.83;3.03;;;7.40;99.90;;;;;;5011300;28;20465;-66
2022/11/19 01:52:43;;;;;;;4.67;3.27;;;7.40;99.90;;;;;;5010791;28;20494;-66
2022/11/19 01:55:10;;;;;;;4.87;2.93;;;7.40;99.90;;;;;;5011515;28;20172;-66
2022/11/19 01:57:38;;;;;;;6.70;3.27;;;7.40;99.90;;;;;;5011511;28;20614;-67
2022/11/19 02:00:05;;;;;;;4.60;3.10;;;7.40;99.90;;;;;;5011579;28;21038;-66
2022/11/19 02:02:32;;;;;;;3.73;3.07;;;7.40;1.00;;;;;;5010404;28;20408;-67
2022/11/19 02:04:59;;;;;;;7.87;3.03;;;7.40;99.90;;;;;;5011726;28;20399;-67
2022/11/19 02:07:28;;;;;;;5.97;3.80;;;7.40;1.00;;;;;;5011330;28;20875;-67
2022/11/19 02:09:59;;;;;;;3.70;3.20;;;7.40;1.00;;;;;;5011725;28;20433;-67
2022/11/19 02:12:43;;;;;;;4.60;3.47;;;7.40;1.00;;;;;;5010699;28;20417;-66
2022/11/19 02:15:14;;;;;;;6.00;3.57;;;7.40;99.90;;;;;;5011675;28;20408;-68
2022/11/19 02:18:01;;;;;;;5.10;3.27;;;7.40;7.80;;;;;;5011179;28;20411;-67
2022/11/19 02:21:21;;;;;;;5.90;3.70;;;7.40;1.00;;;;;;5010440;28;20438;-66
2022/11/19 02:24:04;;;;;;;8.20;3.60;;;7.40;1.00;;;;;;5008790;28;20583;-66
2022/11/19 02:26:49;;;;;;;7.47;3.43;;;7.30;1.00;;;;;;5010919;28;20415;-67
2022/11/19 02:29:29;;;;;;;6.07;3.20;;;7.30;27.40;;;;;;5011238;28;20416;-67
2022/11/19 02:32:10;;;;;;;6.43;3.70;;;7.30;1.00;;;;;;5009971;28;20407;-67
2022/11/19 02:34:43;;;;;;;4.43;4.03;;;7.30;1.00;;;;;;5011194;28;20494;-67
2022/11/19 02:37:27;;;;;;;4.00;3.60;;;7.30;1.00;;;;;;5010606;28;20458;-66
2022/11/19 02:40:05;;;;;;;6.73;3.70;;;7.20;1.00;;;;;;5011140;28;20799;-68
2022/11/19 02:42:41;;;;;;;9.80;3.70;;;7.30;1.00;;;;;;5009748;28;20435;-68
2022/11/19 02:45:23;;;;;;;3.63;3.20;;;7.20;66.10;;;;;;5011251;28;20870;-67
2022/11/19 02:47:55;;;;;;;5.93;3.40;;;7.30;99.90;;;;;;5010649;28;20423;-67
2022/11/19 02:50:30;;;;;;;5.87;4.10;;;7.30;1.00;;;;;;5010328;28;20490;-67
2022/11/19 02:52:57;;;;;;;6.87;3.23;;;7.30;1.00;;;;;;5010674;28;20402;-68
2022/11/19 02:55:23;;;;;;;7.00;3.57;;;7.40;1.00;;;;;;5010456;28;20963;-68
2022/11/19 02:58:02;;;;;;;6.20;5.60;;;7.40;1.00;;;;;;5010652;28;20518;-67
2022/11/19 03:06:14;;;;;;;4.03;3.47;;;7.40;99.90;;;;;;5010781;28;20482;-66
2022/11/19 03:08:40;;;;;;;4.90;4.20;;;7.40;99.90;;;;;;5010310;28;20907;-66
2022/11/19 03:11:22;;;;;;;11.13;4.10;;;7.40;99.90;;;;;;5009524;28;20435;-66
2022/11/19 03:16:56;;;;;;;6.33;3.80;;;7.50;99.90;;;;;;5010622;28;20541;-65
2022/11/19 03:20:00;;;;;;;6.50;3.90;;;7.40;99.90;;;;;;5010419;28;20445;-66
2022/11/19 03:22:38;;;;;;;5.97;3.70;;;7.40;99.90;;;;;;5007860;28;20419;-69
2022/11/19 03:25:09;;;;;;;4.03;3.23;;;7.30;1.00;;;;;;5010284;28;20428;-66
2022/11/19 03:27:41;;;;;;;4.43;3.63;;;7.30;1.00;;;;;;5010256;28;20441;-68
2022/11/19 03:30:08;;;;;;;5.83;3.80;;;7.30;1.00;;;;;;5010183;28;20400;-67
2022/11/19 03:32:39;;;;;;;7.83;4.00;;;7.40;1.00;;;;;;5009563;28;20459;-67
2022/11/19 03:35:11;;;;;;;5.57;4.47;;;7.40;1.00;;;;;;5010262;28;20403;-67
2022/11/19 03:37:40;;;;;;;6.13;3.80;;;7.40;1.00;;;;;;5009507;28;20996;-65
2022/11/19 03:40:09;;;;;;;5.60;3.53;;;7.40;1.00;;;;;;5010368;28;20501;-66
2022/11/19 03:42:35;;;;;;;9.60;4.60;;;7.50;1.00;;;;;;5008994;28;20404;-66
2022/11/19 03:45:13;;;;;;;4.37;3.53;;;7.40;1.00;;;;;;5010150;28;21392;-66
2022/11/19 03:47:42;;;;;;;5.70;4.13;;;7.50;1.00;;;;;;5010131;28;20449;-68
2022/11/19 03:50:20;;;;;;;4.63;4.13;;;7.50;1.00;;;;;;5010359;28;20771;-68
2022/11/19 03:52:46;;;;;;;6.73;4.30;;;7.60;1.00;;;;;;5009316;28;20912;-67
2022/11/19 03:55:12;;;;;;;5.93;4.00;;;7.50;1.00;;;;;;5009935;28;20650;-68
2022/11/19 03:57:38;;;;;;;5.07;4.10;;;7.50;1.00;;;;;;5009559;28;20310;-66
2022/11/19 04:00:04;;;;;;;4.13;3.60;;;7.50;1.00;;;;;;5009932;28;20801;-66
2022/11/19 04:02:30;;;;;;;5.93;3.90;;;7.50;1.00;;;;;;5008748;28;20494;-66
2022/11/19 04:04:56;;;;;;;8.40;3.60;;;7.50;1.00;;;;;;5009789;28;20418;-66
2022/11/19 04:07:23;;;;;;;6.97;4.07;;;7.50;1.00;;;;;;5009217;28;20180;-66
2022/11/19 04:09:49;;;;;;;9.23;5.10;;;7.60;99.90;;;;;;5010051;28;20188;-65
2022/11/19 04:12:17;;;;;;;5.90;3.97;;;7.60;99.90;;;;;;5008833;28;20758;-65
2022/11/19 04:14:43;;;;;;;4.20;3.80;;;7.70;99.90;;;;;;5009991;28;20399;-65
2022/11/19 04:17:10;;;;;;;4.10;3.70;;;7.60;99.90;;;;;;5009531;28;20414;-66
2022/11/19 04:19:36;;;;;;;4.80;3.63;;;7.70;99.90;;;;;;5009401;28;20562;-65
2022/11/19 04:22:02;;;;;;;6.30;3.90;;;7.70;5.30;;;;;;5008764;28;20422;-66
2022/11/19 04:24:28;;;;;;;5.50;4.00;;;7.60;43.60;;;;;;5010217;28;20164;-65
2022/11/19 04:26:53;;;;;;;8.67;3.50;;;7.60;99.90;;;;;;5009506;28;20173;-65
2022/11/19 04:29:19;;;;;;;9.90;4.07;;;7.50;99.90;;;;;;5009577;28;20932;-66
2022/11/19 04:31:45;;;;;;;3.90;3.50;;;7.50;1.00;;;;;;5008398;28;20173;-66
2022/11/19 04:34:11;;;;;;;5.40;3.67;;;7.50;1.00;;;;;;5009393;28;20194;-66
2022/11/19 04:36:39;;;;;;;4.37;3.47;;;7.60;1.00;;;;;;5008319;28;20179;-66
2022/11/19 04:39:04;;;;;;;4.70;4.00;;;7.60;1.00;;;;;;5009336;28;20303;-66
2022/11/19 04:41:30;;;;;;;5.37;4.70;;;7.60;1.00;;;;;;5008225;28;20976;-66
2022/11/19 04:43:56;;;;;;;8.67;4.40;;;7.60;1.00;;;;;;5009369;28;20585;-66
2022/11/19 04:46:22;;;;;;;5.57;4.43;;;7.60;1.00;;;;;;5009311;28;20172;-66
2022/11/19 04:48:47;;;;;;;4.50;4.00;;;7.60;1.00;;;;;;5009120;28;20211;-66
2022/11/19 04:51:13;;;;;;;6.73;3.67;;;7.70;1.00;;;;;;5008232;28;20258;-66
2022/11/19 04:53:39;;;;;;;11.17;3.50;;;7.70;1.00;;;;;;5009532;28;20203;-66
2022/11/19 04:56:05;;;;;;;10.83;3.80;;;7.70;1.00;;;;;;5012863;28;20176;-66
2022/11/19 04:58:31;;;;;;;6.23;4.00;;;7.70;1.00;;;;;;5012832;28;20196;-66
2022/11/19 05:00:56;;;;;;;9.73;5.13;;;7.70;1.00;;;;;;5011871;28;21037;-66
2022/11/19 05:03:22;;;;;;;11.43;3.50;;;7.60;1.00;;;;;;5012929;28;20175;-66
2022/11/19 05:05:47;;;;;;;5.77;3.77;;;7.70;1.00;;;;;;5012659;28;20196;-66
2022/11/19 05:08:13;;;;;;;4.90;3.90;;;7.60;1.00;;;;;;5012424;28;20520;-66
2022/11/19 05:10:39;;;;;;;6.60;4.67;;;7.70;1.00;;;;;;5011676;28;20287;-66
2022/11/19 05:13:04;;;;;;;9.77;3.83;;;7.60;1.00;;;;;;5012735;28;20177;-66
2022/11/19 05:15:30;;;;;;;10.20;3.50;;;7.60;65.80;;;;;;5012633;28;20169;-66
2022/11/19 05:17:56;;;;;;;7.40;3.37;;;7.50;99.90;;;;;;5012086;28;20192;-66
2022/11/19 05:20:21;;;;;;;6.10;4.00;;;7.60;99.90;;;;;;5012382;28;20316;-66
2022/11/19 05:22:47;;;;;;;4.23;3.80;;;7.60;91.40;;;;;;5011397;28;20183;-66
2022/11/19 05:25:12;;;;;;;4.07;3.67;;;7.60;76.40;;;;;;5012579;28;20685;-66
2022/11/19 05:27:38;;;;;;;7.63;3.80;;;7.60;99.90;;;;;;5011969;28;20588;-66
2022/11/19 05:30:04;;;;;;;5.37;3.40;;;7.60;99.90;;;;;;5012562;28;20195;-66
2022/11/19 05:32:30;;;;;;;3.93;3.63;;;7.60;99.90;;;;;;5011312;28;20176;-66
2022/11/19 05:34:56;;;;;;;4.83;3.63;;;7.50;99.90;;;;;;5011997;28;20780;-66
2022/11/19 05:37:21;;;;;;;4.50;3.77;;;7.50;99.90;;;;;;5011572;28;20251;-66
2022/11/19 05:39:47;;;;;;;6.30;5.03;;;7.40;1.00;;;;;;5011757;28;20242;-66
2022/11/19 05:42:13;;;;;;;6.03;3.90;;;7.40;1.00;;;;;;5011301;28;20164;-66
2022/11/19 05:44:38;;;;;;;5.77;2.97;;;7.40;1.00;;;;;;5011627;28;20164;-65
2022/11/19 05:47:04;;;;;;;5.00;3.73;;;7.40;1.00;;;;;;5012140;28;20164;-66
2022/11/19 05:49:29;;;;;;;13.03;4.00;;;7.50;1.00;;;;;;5011940;28;20246;-66
2022/11/19 05:51:55;;;;;;;4.90;3.63;;;7.50;1.00;;;;;;5010532;28;20176;-66
2022/11/19 05:54:21;;;;;;;5.93;3.63;;;7.50;99.90;;;;;;5011465;28;20618;-68
2022/11/19 05:56:46;;;;;;;4.90;3.77;;;7.60;99.90;;;;;;5011781;28;20506;-68
2022/11/19 05:59:12;;;;;;;4.30;3.80;;;7.60;99.90;;;;;;5011606;28;20193;-67
2022/11/19 06:01:38;;;;;;;14.40;4.20;;;7.50;99.90;;;;;;5010424;28;20196;-67
2022/11/19 06:04:03;;;;;;;10.97;3.90;;;7.50;99.90;;;;;;5011380;28;20175;-67
2022/11/19 06:06:29;;;;;;;8.10;4.20;;;7.60;99.90;;;;;;5010628;28;20178;-68
2022/11/19 06:08:55;;;;;;;8.70;3.20;;;7.60;99.90;;;;;;5011615;28;20195;-67
2022/11/19 06:14:04;;;;;;;8.20;3.90;;;7.50;99.90;;;;;;5011347;28;20310;-67
2022/11/19 06:16:30;;;;;;;7.50;4.67;;;7.60;99.90;;;;;;5011249;28;20486;-68
2022/11/19 06:18:56;;;;;;;10.87;4.70;;;7.50;99.90;;;;;;5011514;28;20309;-67
2022/11/19 06:21:21;;;;;;;13.60;5.20;;;7.50;99.90;;;;;;5010059;28;20196;-68
2022/11/19 06:23:47;;;;;;;13.10;4.67;;;7.50;1.00;;;;;;5011247;28;20175;-68
2022/11/19 06:26:24;;;;;;;5.40;4.40;;;7.60;1.00;;;;;;5011164;28;20175;-66
2022/11/19 06:28:50;;;;;;;9.00;4.87;;;7.50;1.00;;;;;;5011153;28;20188;-66
2022/11/19 06:31:16;;;;;;;5.40;4.50;;;7.50;1.00;;;;;;5010265;28;20923;-66
2022/11/19 06:33:42;;;;;;;7.93;4.87;;;7.50;1.00;;;;;;5011495;28;20586;-66
2022/11/19 06:36:08;;;;;;;20.23;5.50;;;7.40;1.00;;;;;;5010875;28;20487;-67
2022/11/19 06:38:34;;;;;;;20.43;7.00;;;7.30;1.00;;;;;;5010496;28;20700;-66
2022/11/19 06:40:59;;;;;;;21.23;4.90;;;7.40;1.00;;;;;;5010132;28;20517;-66
2022/11/19 06:43:25;;;;;;;11.20;4.70;;;7.50;1.00;;;;;;5011117;28;20173;-66
2022/11/19 06:45:50;;;;;;;17.77;6.27;;;7.50;1.00;;;;;;5010396;28;20168;-66
2022/11/19 06:48:16;;;;;;;14.17;5.27;;;7.50;1.00;;;;;;5010789;28;20275;-66
2022/11/19 06:50:44;;;;;;;5.20;4.70;;;7.60;1.00;;;;;;5010121;28;20187;-68
2022/11/19 06:53:10;;;;;;;5.33;4.23;;;7.50;1.00;;;;;;5010037;28;20200;-67
2022/11/19 06:55:35;;;;;;;8.60;4.70;;;7.50;1.00;;;;;;5010942;28;20447;-68
2022/11/19 06:58:02;;;;;;;6.93;5.30;;;7.60;1.00;;;;;;5010348;28;20764;-67
2022/11/19 07:00:28;;;;;;;12.37;5.17;;;7.70;1.00;;;;;;5009703;28;20835;-67
2022/11/19 07:02:54;;;;;;;8.27;6.13;;;7.70;1.00;;;;;;5010622;28;20552;-68
2022/11/19 07:05:19;;;;;;;8.50;5.77;;;7.60;1.00;;;;;;5010390;28;20672;-65
2022/11/19 07:07:45;;;;;;;6.33;5.60;;;7.60;1.00;;;;;;5010194;28;20547;-67
2022/11/19 07:10:11;;;;;;;6.40;5.77;;;7.50;1.00;;;;;;5009813;28;20192;-67
2022/11/19 07:12:36;;;;;;;8.23;5.40;;;7.60;1.00;;;;;;5009788;28;20215;-67
2022/11/19 07:15:03;;;;;;;10.40;7.60;;;7.60;1.00;;;;;;5010191;28;20211;-66
2022/11/19 07:17:28;;;;;;;14.50;7.20;;;7.60;1.00;;;;;;5008035;28;20637;-67
2022/11/19 07:19:54;;;;;;;9.33;7.33;;;7.70;1.00;;;;;;5010480;28;20414;-66
2022/11/19 07:22:19;;;;;;;9.03;6.90;;;7.60;1.00;;;;;;5009047;28;20179;-66
2022/11/19 07:24:45;;;;;;;9.13;6.20;;;7.70;1.00;;;;;;5010032;28;20195;-65
2022/11/19 07:27:11;;;;;;;7.10;6.40;;;7.60;1.00;;;;;;5009933;28;20168;-66
2022/11/19 07:29:37;;;;;;;7.50;5.67;;;7.60;1.00;;;;;;5010025;28;20315;-68
2022/11/19 07:32:04;;;;;;;13.20;6.50;;;7.60;1.00;;;;;;5009307;28;20597;-67
2022/11/19 07:34:30;;;;;;;10.50;5.90;;;7.60;1.00;;;;;;5010345;28;20781;-68
2022/11/19 07:36:55;;;;;;;13.10;6.00;;;7.70;1.00;;;;;;5009661;28;20412;-67
2022/11/19 07:39:21;;;;;;;22.43;6.83;;;7.80;1.00;;;;;;5010586;28;20203;-67
2022/11/19 07:44:31;;;;;;;24.63;9.20;;;7.90;99.90;;;;;;5009961;28;20659;-67
2022/11/19 07:46:57;;;;;;;16.73;5.63;;;7.90;99.90;;;;;;5009703;28;20408;-67
2022/11/19 07:49:23;;;;;;;8.60;5.97;;;7.90;99.90;;;;;;5009643;28;20192;-68
2022/11/19 07:51:49;;;;;;;19.07;5.93;;;7.80;99.90;;;;;;5008649;28;20498;-66
2022/11/19 07:54:15;;;;;;;7.63;5.17;;;7.90;99.90;;;;;;5010272;28;20519;-67
2022/11/19 07:56:41;;;;;;;10.97;4.77;;;8.00;40.00;;;;;;5010212;28;20403;-67
2022/11/19 07:59:07;;;;;;;9.50;4.73;;;8.00;1.00;;;;;;5010611;28;20526;-67
2022/11/19 08:01:33;;;;;;;18.17;5.30;;;8.00;1.00;;;;;;5008947;28;20873;-67
2022/11/19 08:03:59;;;;;;;14.80;5.57;;;8.10;1.00;;;;;;5010340;28;20164;-68
2022/11/19 08:06:27;;;;;;;8.03;4.00;;;8.10;99.90;;;;;;5009528;28;20166;-67
2022/11/19 08:08:55;;;;;;;7.03;4.10;;;8.10;99.90;;;;;;5009888;28;20219;-67
2022/11/19 08:11:20;;;;;;;4.13;3.70;;;8.00;99.90;;;;;;5009343;28;20744;-67
2022/11/19 08:13:46;;;;;;;4.20;3.50;;;8.00;99.90;;;;;;5010268;28;20407;-67
2022/11/19 08:18:11;;;;;;;7.13;4.73;;;8.00;99.90;;;;;;5009637;28;20173;-68
2022/11/19 08:19:06;;;;;;;5.70;4.20;;;8.00;1.00;;;;;;5009327;28;20654;-67
2022/11/19 08:21:33;;;;;;;4.47;3.90;;;8.00;1.00;;;;;;5008045;28;20630;-68
2022/11/19 08:23:58;;;;;;;6.70;4.17;;;8.00;1.00;;;;;;5009851;28;20416;-67
2022/11/19 08:26:24;;;;;;;3.67;3.33;;;8.10;99.90;;;;;;5009439;28;20400;-67
2022/11/19 08:28:50;;;;;;;6.63;3.83;;;8.10;8.60;;;;;;5010060;28;20188;-67
2022/11/19 08:31:15;;;;;;;6.87;4.37;;;8.10;99.90;;;;;;5012914;28;20178;-67
2022/11/19 08:33:41;;;;;;;6.00;3.60;;;8.10;99.90;;;;;;5013250;28;20169;-67
2022/11/19 08:36:07;;;;;;;4.80;3.97;;;8.10;99.90;;;;;;5013310;28;20176;-66
2022/11/19 08:38:32;;;;;;;7.03;4.50;;;8.10;99.90;;;;;;5013826;28;20281;-67
2022/11/19 08:43:45;;;;;;;8.23;4.17;;;8.10;99.90;;;;;;5013239;28;20619;-66
2022/11/19 08:46:11;;;;;;;5.63;3.67;;;8.10;39.50;;;;;;5013161;28;20435;-67
2022/11/19 08:48:39;;;;;;;5.97;4.70;;;8.10;1.00;;;;;;5013272;28;20180;-68
2022/11/19 08:51:06;;;;;;;3.33;2.83;;;8.20;1.00;;;;;;5012269;28;20176;-68
2022/11/19 08:53:32;;;;;;;7.83;3.80;;;8.30;1.00;;;;;;5012324;28;20812;-66
2022/11/19 08:55:58;;;;;;;18.77;4.00;;;8.50;99.90;;;;;;5013401;28;20840;-67
2022/11/19 08:58:27;;;;;;;4.10;3.30;;;9.00;99.90;;;;;;5012857;28;20955;-67
2022/11/19 09:00:56;;;;;;;6.53;3.00;;;10.30;1.00;;;;;;5011939;28;21046;-67
2022/11/19 09:03:22;;;;;;;4.53;3.40;;;12.70;2.60;;;;;;5013124;28;20395;-68
2022/11/19 09:05:50;;;;;;;7.50;3.70;;;13.00;1.00;;;;;;5012721;28;20418;-68
2022/11/19 09:08:16;;;;;;;8.63;4.50;;;13.30;1.00;;;;;;5012270;28;20199;-68
2022/11/19 09:10:41;;;;;;;8.90;4.50;;;12.90;1.00;;;;;;5011934;28;20453;-68
2022/11/19 09:13:07;;;;;;;11.83;4.60;;;12.00;1.00;;;;;;5012281;28;20564;-68
2022/11/19 09:15:34;;;;;;;5.17;3.93;;;11.40;1.00;;;;;;5013313;28;20549;-71
2022/11/19 09:18:03;;;;;;;3.33;3.03;;;10.90;1.00;;;;;;5013256;28;20279;-68
2022/11/19 09:20:31;;;;;;;3.10;2.80;;;10.80;1.00;;;;;;5011424;28;20463;-68
2022/11/19 09:22:57;;;;;;;27.77;5.50;;;10.90;1.00;;;;;;5014098;28;20399;-67
2022/11/19 09:25:23;;;;;;;28.30;6.50;;;11.50;1.00;;;;;;5012524;28;20506;-67
2022/11/19 09:27:49;;;;;;;37.03;5.20;;;12.40;1.00;;;;;;5011555;28;20223;-66
2022/11/19 09:30:14;;;;;;;10.80;3.87;;;13.50;1.00;;;;;;5011976;28;20169;-67
2022/11/19 09:32:40;;;;;;;30.67;6.27;;;14.00;99.90;;;;;;5011459;28;20176;-67
2022/11/19 09:35:06;;;;;;;8.03;3.50;;;14.20;99.90;;;;;;5012101;28;20165;-67
2022/11/19 09:37:33;;;;;;;9.53;2.90;;;14.50;99.90;;;;;;5011304;28;20169;-67
2022/11/19 09:39:59;;;;;;;3.87;2.80;;;14.20;99.90;;;;;;5011071;28;20927;-68
2022/11/19 09:42:39;;;;;;;3.63;2.70;;;13.40;99.90;;;;;;5010826;28;20725;-67
2022/11/19 09:45:14;;;;;;;3.47;2.60;;;12.90;99.90;;;;;;5011934;28;20446;-67
2022/11/19 09:47:55;;;;;;;2.77;2.47;;;12.20;99.90;;;;;;5011612;28;20427;-68
2022/11/19 09:50:25;;;;;;;4.37;2.70;;;11.80;99.90;;;;;;5011340;28;20422;-67
2022/11/19 09:53:12;;;;;;;22.23;2.80;;;11.60;99.90;;;;;;5011129;28;20396;-68
2022/11/19 09:55:42;;;;;;;11.60;3.67;;;11.30;99.90;;;;;;5012054;28;20510;-68
2022/11/19 09:58:37;;;;;;;5.00;2.50;;;11.00;1.00;;;;;;5011698;28;20574;-67
2022/11/19 10:01:03;;;;;;;27.53;4.60;;;10.90;1.00;;;;;;5010473;28;20459;-68
2022/11/19 10:03:29;;;;;;;19.67;5.07;;;10.80;1.00;;;;;;5011627;28;20458;-68
2022/11/19 10:06:17;;;;;;;22.87;5.50;;;10.90;1.00;;;;;;5011636;28;20777;-68
2022/11/19 10:09:16;;;;;;;18.73;3.70;;;10.90;1.00;;;;;;5011747;28;20196;-69
2022/11/19 10:12:06;;;;;;;7.97;3.50;;;10.80;1.00;;;;;;5009314;28;20485;-68
2022/11/19 10:14:59;;;;;;;3.97;3.10;;;10.70;1.00;;;;;;5011634;28;20743;-69
2022/11/19 10:17:54;;;;;;;7.20;3.50;;;10.70;1.00;;;;;;5011438;28;20414;-69
2022/11/19 10:20:34;;;;;;;13.47;3.83;;;10.60;1.00;;;;;;5010961;28;20458;-68
2022/11/19 10:23:22;;;;;;;46.53;7.07;;;10.60;1.00;;;;;;5011394;28;20403;-68
2022/11/19 10:25:52;;;;;;;9.53;2.63;;;10.60;1.00;;;;;;5011649;28;20402;-68
2022/11/19 10:28:23;;;;;;;5.63;2.53;;;10.70;1.00;;;;;;5011010;28;20433;-68
2022/11/19 10:30:53;;;;;;;7.63;2.60;;;10.90;1.00;;;;;;5010274;28;20571;-67
2022/11/19 10:33:31;;;;;;;5.67;2.87;;;10.90;1.00;;;;;;5011238;28;20403;-66
2022/11/19 10:36:05;;;;;;;4.60;3.10;;;11.00;1.00;;;;;;5010741;28;20494;-67
2022/11/19 10:38:50;;;;;;;5.90;3.70;;;11.40;1.00;;;;;;5010230;28;20450;-67
2022/11/19 10:41:27;;;;;;;3.47;2.13;;;11.80;1.00;;;;;;5009927;28;20482;-67
2022/11/19 10:44:00;;;;;;;3.43;2.30;;;12.00;1.00;;;;;;5011047;28;20406;-67
2022/11/19 10:46:27;;;;;;;4.53;3.07;;;12.00;1.00;;;;;;5010499;28;20494;-68
2022/11/19 10:49:03;;;;;;;4.87;2.57;;;11.90;1.00;;;;;;5011232;28;21056;-68
2022/11/19 10:51:32;;;;;;;4.73;2.20;;;11.70;1.00;;;;;;5009404;28;20407;-68
2022/11/19 10:54:01;;;;;;;6.07;2.23;;;11.40;1.00;;;;;;5010618;28;20427;-67
2022/11/19 10:56:39;;;;;;;11.83;2.73;;;11.30;1.00;;;;;;5010059;28;20439;-68
2022/11/19 10:59:22;;;;;;;5.57;2.93;;;11.20;1.00;;;;;;5010555;28;20469;-67
2022/11/19 11:01:55;;;;;;;7.13;3.47;;;11.10;1.00;;;;;;5009471;28;20586;-67
2022/11/19 11:04:27;;;;;;;8.20;2.57;;;11.00;1.00;;;;;;5010434;28;20396;-67
2022/11/19 11:06:59;;;;;;;8.00;2.83;;;10.70;1.00;;;;;;5010110;28;20396;-66
2022/11/19 11:09:37;;;;;;;7.63;3.10;;;10.70;1.00;;;;;;5010393;28;20427;-67
2022/11/19 11:15:12;;;;;;;11.77;3.07;;;10.80;1.00;;;;;;5009931;28;20445;-66
2022/11/19 11:17:41;;;;;;;10.03;2.70;;;10.80;1.00;;;;;;5009976;28;20399;-66
2022/11/19 11:20:23;;;;;;;9.33;2.60;;;10.90;1.00;;;;;;5009789;28;20657;-69
2022/11/19 11:23:00;;;;;;;4.40;2.50;;;10.90;1.00;;;;;;5009787;28;20409;-68
2022/11/19 11:25:27;;;;;;;4.60;2.23;;;10.90;1.00;;;;;;5009774;28;20787;-67
2022/11/19 11:28:22;;;;;;;7.23;3.00;;;11.00;1.00;;;;;;5009916;28;20829;-69
2022/11/19 11:30:51;;;;;;;8.03;3.27;;;11.00;1.00;;;;;;5004262;28;20419;-67
2022/11/19 11:33:40;;;;;;;7.97;3.53;;;10.80;1.00;;;;;;5009970;28;20451;-67
2022/11/19 11:36:11;;;;;;;10.87;4.97;;;10.80;1.00;;;;;;5006116;28;20420;-68
2022/11/19 11:38:47;;;;;;;13.67;3.87;;;10.80;1.00;;;;;;5009491;28;20927;-68
2022/11/19 11:41:20;;;;;;;9.60;4.43;;;10.80;1.00;;;;;;5008538;28;20523;-67
2022/11/19 11:44:03;;;;;;;18.07;3.97;;;10.80;1.00;;;;;;5009957;28;20407;-66
2022/11/19 11:46:48;;;;;;;8.30;3.43;;;10.90;1.00;;;;;;5009271;28;20403;-68
2022/11/19 11:49:20;;;;;;;7.97;3.40;;;10.80;1.00;;;;;;5009670;28;20427;-67
2022/11/19 11:51:53;;;;;;;5.27;2.87;;;10.70;1.00;;;;;;5008103;28;20419;-67
2022/11/19 11:54:20;;;;;;;6.53;3.30;;;10.60;1.00;;;;;;5009550;28;20499;-66
2022/11/19 11:56:47;;;;;;;7.67;2.73;;;10.60;1.00;;;;;;5009577;28;20423;-66
2022/11/19 11:59:28;;;;;;;4.20;2.70;;;10.70;1.00;;;;;;5009989;28;20423;-68
2022/11/19 12:02:03;;;;;;;17.40;3.63;;;10.70;1.00;;;;;;5008478;28;20880;-68
2022/11/19 12:04:29;;;;;;;10.80;3.00;;;10.70;1.00;;;;;;5009343;28;20409;-66
2022/11/19 12:07:27;;;;;;;4.37;2.40;;;10.80;1.00;;;;;;5008734;28;20490;-68
2022/11/19 12:10:22;;;;;;;5.00;2.67;;;10.70;1.00;;;;;;5008230;28;20176;-69
2022/11/19 12:13:09;;;;;;;6.20;2.87;;;10.70;1.00;;;;;;5008213;28;20415;-68
2022/11/19 12:16:10;;;;;;;5.80;2.80;;;10.90;1.00;;;;;;5009044;28;20406;-67
2022/11/19 12:19:20;;;;;;;17.90;3.03;;;10.90;1.00;;;;;;5009125;28;20799;-69
2022/11/19 12:22:00;;;;;;;17.03;3.90;;;11.00;1.00;;;;;;5007003;28;20467;-69
2022/11/19 12:24:56;;;;;;;11.20;3.03;;;11.00;1.00;;;;;;5009037;28;20427;-69
2022/11/19 12:27:34;;;;;;;55.53;8.70;;;11.00;1.00;;;;;;5008752;28;20501;-68
2022/11/19 12:30:07;;;;;;;66.27;8.70;;;11.00;1.00;;;;;;5009056;28;20425;-67
2022/11/19 12:32:41;;;;;;;24.33;4.30;;;11.00;1.00;;;;;;5008021;28;20487;-68
2022/11/19 12:35:35;;;;;;;8.13;2.90;;;11.00;1.00;;;;;;5009190;28;20407;-68
2022/11/19 12:38:13;;;;;;;22.43;4.00;;;11.00;1.00;;;;;;5008674;28;20446;-68
2022/11/19 12:40:48;;;;;;;17.20;3.70;;;11.00;1.00;;;;;;5008548;28;20460;-67
2022/11/19 12:43:35;;;;;;;37.67;7.33;;;11.00;1.00;;;;;;5009219;28;20446;-67
2022/11/19 12:46:22;;;;;;;81.37;10.27;;;11.00;1.00;;;;;;5009273;28;20449;-68
2022/11/19 12:49:32;;;;;;;16.23;3.67;;;11.10;1.00;;;;;;5009841;28;20434;-68
2022/11/19 12:52:43;;;;;;;14.40;3.77;;;11.00;1.00;;;;;;5006951;28;20421;-67
2022/11/19 12:55:36;;;;;;;3.77;2.33;;;11.00;1.00;;;;;;5009780;28;20411;-68
2022/11/19 12:58:25;;;;;;;4.60;2.20;;;11.00;1.00;;;;;;5009153;28;20957;-68
2022/11/19 13:00:58;;;;;;;3.00;1.93;;;11.00;1.00;;;;;;5008555;28;20505;-67
2022/11/19 13:03:47;;;;;;;6.13;2.57;;;11.10;1.00;;;;;;5009604;28;20411;-67
2022/11/19 13:06:21;;;;;;;3.53;2.00;;;11.10;1.00;;;;;;5009127;28;20875;-67
2022/11/19 13:09:13;;;;;;;2.47;2.23;;;11.10;1.00;;;;;;5009203;28;20447;-68
2022/11/19 13:11:44;;;;;;;2.60;1.87;;;11.20;1.00;;;;;;4999727;28;20441;-66
2022/11/19 13:14:35;;;;;;;3.00;2.10;;;11.30;1.00;;;;;;5008990;28;20447;-67
2022/11/19 13:17:04;;;;;;;2.83;1.63;;;11.40;1.00;;;;;;5008885;28;20415;-67
2022/11/19 13:19:36;;;;;;;2.87;1.93;;;11.20;99.90;;;;;;5012920;28;20423;-67
2022/11/19 13:22:46;;;;;;;11.97;2.30;;;11.10;99.90;;;;;;5010840;28;20466;-67
2022/11/19 13:25:19;;;;;;;5.97;2.03;;;11.10;99.90;;;;;;4999993;28;20439;-68
2022/11/19 13:27:48;;;;;;;1.70;1.20;;;11.20;99.90;;;;;;5012119;28;20940;-68
2022/11/19 13:30:19;;;;;;;17.23;2.40;;;11.40;99.90;;;;;;5012009;28;20435;-67
2022/11/19 13:33:01;;;;;;;15.27;2.27;;;11.40;99.90;;;;;;5012130;28;20944;-68
2022/11/19 13:35:44;;;;;;;7.97;1.80;;;11.40;99.90;;;;;;5012439;28;20414;-67
2022/11/19 13:38:42;;;;;;;8.00;1.97;;;11.50;99.90;;;;;;5011467;28;20435;-67
2022/11/19 13:41:27;;;;;;;3.87;1.50;;;11.40;99.90;;;;;;5011565;28;20451;-67
2022/11/19 13:46:44;;;;;;;16.90;2.23;;;11.60;99.90;;;;;;5011855;28;20768;-67
2022/11/19 13:49:30;;;;;;;20.77;3.00;;;11.60;99.90;;;;;;5011763;28;20423;-67